sensor_id;sensor_type;location;lat;lon;timestamp;P1;durP1;ratioP1;P2;durP2;ratioP2
58669;SDS011;44439;47.924;10.198;2022-08-19T00:00:16;9.85;;;8.85;;
58669;SDS011;44439;47.924;10.198;2022-08-19T00:03:03;9.80;;;8.90;;
58669;SDS011;44439;47.924;10.198;2022-08-19T00:05:50;9.70;;;8.80;;
58669;SDS011;44439;47.924;10.198;2022-08-19T00:08:35;8.88;;;8.05;;
58669;SDS011;44439;47.924;10.198;2022-08-19T00:11:21;9.20;;;8.30;;
58669;SDS011;44439;47.924;10.198;2022-08-19T00:14:08;9.23;;;8.32;;
58669;SDS011;44439;47.924;10.198;2022-08-19T00:16:55;9.98;;;8.98;;
58669;SDS011;44439;47.924;10.198;2022-08-19T00:19:41;9.30;;;8.40;;
58669;SDS011;44439;47.924;10.198;2022-08-19T00:22:26;10.38;;;9.27;;
58669;SDS011;44439;47.924;10.198;2022-08-19T00:25:14;10.05;;;9.10;;
58669;SDS011;44439;47.924;10.198;2022-08-19T00:28:00;10.55;;;9.05;;
58669;SDS011;44439;47.924;10.198;2022-08-19T00:30:46;10.38;;;9.38;;
58669;SDS011;44439;47.924;10.198;2022-08-19T00:33:33;10.18;;;9.25;;
58669;SDS011;44439;47.924;10.198;2022-08-19T00:36:19;9.30;;;8.40;;
58669;SDS011;44439;47.924;10.198;2022-08-19T00:39:04;9.93;;;8.93;;
58669;SDS011;44439;47.924;10.198;2022-08-19T00:41:50;9.90;;;8.50;;
58669;SDS011;44439;47.924;10.198;2022-08-19T00:44:36;9.70;;;8.70;;
58669;SDS011;44439;47.924;10.198;2022-08-19T00:47:22;9.00;;;8.07;;
58669;SDS011;44439;47.924;10.198;2022-08-19T00:50:08;8.23;;;7.43;;
58669;SDS011;44439;47.924;10.198;2022-08-19T00:52:54;7.90;;;7.10;;
58669;SDS011;44439;47.924;10.198;2022-08-19T00:55:41;8.40;;;7.60;;
58669;SDS011;44439;47.924;10.198;2022-08-19T00:58:29;8.38;;;7.50;;
58669;SDS011;44439;47.924;10.198;2022-08-19T01:01:17;7.95;;;7.00;;
58669;SDS011;44439;47.924;10.198;2022-08-19T01:04:03;8.40;;;7.60;;
58669;SDS011;44439;47.924;10.198;2022-08-19T01:06:49;8.25;;;7.47;;
58669;SDS011;44439;47.924;10.198;2022-08-19T01:09:35;8.05;;;7.25;;
58669;SDS011;44439;47.924;10.198;2022-08-19T01:12:20;7.75;;;7.05;;
58669;SDS011;44439;47.924;10.198;2022-08-19T01:15:07;9.32;;;7.47;;
58669;SDS011;44439;47.924;10.198;2022-08-19T01:17:55;8.70;;;7.80;;
58669;SDS011;44439;47.924;10.198;2022-08-19T01:20:43;8.40;;;7.60;;
58669;SDS011;44439;47.924;10.198;2022-08-19T01:23:29;7.70;;;6.90;;
58669;SDS011;44439;47.924;10.198;2022-08-19T01:26:44;7.63;;;6.57;;
58669;SDS011;44439;47.924;10.198;2022-08-19T01:29:31;7.13;;;6.53;;
58669;SDS011;44439;47.924;10.198;2022-08-19T01:32:17;8.13;;;6.38;;
58669;SDS011;44439;47.924;10.198;2022-08-19T01:35:04;6.88;;;5.90;;
58669;SDS011;44439;47.924;10.198;2022-08-19T01:37:51;6.80;;;6.20;;
58669;SDS011;44439;47.924;10.198;2022-08-19T01:40:39;6.63;;;6.03;;
58669;SDS011;44439;47.924;10.198;2022-08-19T01:43:27;6.32;;;5.75;;
58669;SDS011;44439;47.924;10.198;2022-08-19T01:46:12;7.03;;;6.32;;
58669;SDS011;44439;47.924;10.198;2022-08-19T01:48:58;7.78;;;7.07;;
58669;SDS011;44439;47.924;10.198;2022-08-19T01:51:44;6.65;;;5.97;;
58669;SDS011;44439;47.924;10.198;2022-08-19T01:54:31;6.35;;;5.75;;
58669;SDS011;44439;47.924;10.198;2022-08-19T01:57:17;5.97;;;5.47;;
58669;SDS011;44439;47.924;10.198;2022-08-19T02:00:06;6.10;;;5.50;;
58669;SDS011;44439;47.924;10.198;2022-08-19T02:02:54;5.88;;;5.28;;
58669;SDS011;44439;47.924;10.198;2022-08-19T02:05:40;6.43;;;5.40;;
58669;SDS011;44439;47.924;10.198;2022-08-19T02:08:26;6.10;;;5.55;;
58669;SDS011;44439;47.924;10.198;2022-08-19T02:11:23;5.88;;;5.28;;
58669;SDS011;44439;47.924;10.198;2022-08-19T02:14:11;5.97;;;5.47;;
58669;SDS011;44439;47.924;10.198;2022-08-19T02:16:57;6.05;;;5.45;;
58669;SDS011;44439;47.924;10.198;2022-08-19T02:19:43;5.97;;;5.38;;
58669;SDS011;44439;47.924;10.198;2022-08-19T02:22:28;5.57;;;5.05;;
58669;SDS011;44439;47.924;10.198;2022-08-19T02:25:14;5.65;;;5.15;;
58669;SDS011;44439;47.924;10.198;2022-08-19T02:28:00;4.70;;;4.30;;
58669;SDS011;44439;47.924;10.198;2022-08-19T02:30:46;4.80;;;4.28;;
58669;SDS011;44439;47.924;10.198;2022-08-19T02:33:33;4.82;;;4.43;;
58669;SDS011;44439;47.924;10.198;2022-08-19T02:36:18;5.43;;;4.93;;
58669;SDS011;44439;47.924;10.198;2022-08-19T02:39:04;5.20;;;4.75;;
58669;SDS011;44439;47.924;10.198;2022-08-19T02:41:50;5.53;;;5.03;;
58669;SDS011;44439;47.924;10.198;2022-08-19T02:44:37;6.43;;;4.80;;
58669;SDS011;44439;47.924;10.198;2022-08-19T02:47:23;5.00;;;4.50;;
58669;SDS011;44439;47.924;10.198;2022-08-19T02:50:09;7.05;;;4.82;;
58669;SDS011;44439;47.924;10.198;2022-08-19T02:52:55;5.70;;;5.20;;
58669;SDS011;44439;47.924;10.198;2022-08-19T02:55:44;6.13;;;5.13;;
58669;SDS011;44439;47.924;10.198;2022-08-19T02:58:31;7.07;;;5.60;;
58669;SDS011;44439;47.924;10.198;2022-08-19T03:01:24;6.57;;;5.97;;
58669;SDS011;44439;47.924;10.198;2022-08-19T03:04:11;7.25;;;6.55;;
58669;SDS011;44439;47.924;10.198;2022-08-19T03:06:58;7.50;;;6.80;;
58669;SDS011;44439;47.924;10.198;2022-08-19T03:09:43;7.68;;;6.72;;
58669;SDS011;44439;47.924;10.198;2022-08-19T03:12:29;8.07;;;7.28;;
58669;SDS011;44439;47.924;10.198;2022-08-19T03:15:15;8.38;;;7.28;;
58669;SDS011;44439;47.924;10.198;2022-08-19T03:18:00;8.43;;;6.78;;
58669;SDS011;44439;47.924;10.198;2022-08-19T03:20:47;7.70;;;6.72;;
58669;SDS011;44439;47.924;10.198;2022-08-19T03:23:34;8.55;;;6.88;;
58669;SDS011;44439;47.924;10.198;2022-08-19T03:26:20;8.30;;;7.50;;
58669;SDS011;44439;47.924;10.198;2022-08-19T03:29:06;9.20;;;7.63;;
58669;SDS011;44439;47.924;10.198;2022-08-19T03:31:52;8.55;;;7.50;;
58669;SDS011;44439;47.924;10.198;2022-08-19T03:34:37;7.18;;;6.47;;
58669;SDS011;44439;47.924;10.198;2022-08-19T03:37:23;6.40;;;5.80;;
58669;SDS011;44439;47.924;10.198;2022-08-19T03:40:09;8.25;;;6.47;;
58669;SDS011;44439;47.924;10.198;2022-08-19T03:42:55;6.75;;;5.57;;
58669;SDS011;44439;47.924;10.198;2022-08-19T03:45:40;6.70;;;5.60;;
58669;SDS011;44439;47.924;10.198;2022-08-19T03:48:26;6.55;;;5.90;;
58669;SDS011;44439;47.924;10.198;2022-08-19T03:51:19;6.28;;;5.68;;
58669;SDS011;44439;47.924;10.198;2022-08-19T03:54:08;6.90;;;5.90;;
58669;SDS011;44439;47.924;10.198;2022-08-19T03:56:55;8.70;;;5.50;;
58669;SDS011;44439;47.924;10.198;2022-08-19T03:59:41;6.28;;;5.70;;
58669;SDS011;44439;47.924;10.198;2022-08-19T04:02:27;7.20;;;6.15;;
58669;SDS011;44439;47.924;10.198;2022-08-19T04:05:13;7.22;;;6.45;;
58669;SDS011;44439;47.924;10.198;2022-08-19T04:08:00;9.10;;;7.10;;
58669;SDS011;44439;47.924;10.198;2022-08-19T04:10:49;7.22;;;6.22;;
58669;SDS011;44439;47.924;10.198;2022-08-19T04:13:34;7.22;;;6.53;;
58669;SDS011;44439;47.924;10.198;2022-08-19T04:16:21;7.30;;;6.60;;
58669;SDS011;44439;47.924;10.198;2022-08-19T04:19:08;8.80;;;7.90;;
58669;SDS011;44439;47.924;10.198;2022-08-19T04:21:54;7.43;;;6.72;;
58669;SDS011;44439;47.924;10.198;2022-08-19T04:24:40;7.93;;;7.13;;
58669;SDS011;44439;47.924;10.198;2022-08-19T04:27:26;10.38;;;8.88;;
58669;SDS011;44439;47.924;10.198;2022-08-19T04:30:12;9.90;;;8.85;;
58669;SDS011;44439;47.924;10.198;2022-08-19T04:32:59;12.02;;;10.82;;
58669;SDS011;44439;47.924;10.198;2022-08-19T04:35:45;12.50;;;11.07;;
58669;SDS011;44439;47.924;10.198;2022-08-19T04:38:33;14.93;;;13.35;;
58669;SDS011;44439;47.924;10.198;2022-08-19T04:41:19;15.73;;;14.13;;
58669;SDS011;44439;47.924;10.198;2022-08-19T04:44:23;16.52;;;14.68;;
58669;SDS011;44439;47.924;10.198;2022-08-19T04:47:09;17.52;;;14.70;;
58669;SDS011;44439;47.924;10.198;2022-08-19T04:49:55;15.00;;;13.50;;
58669;SDS011;44439;47.924;10.198;2022-08-19T04:52:40;16.33;;;14.63;;
58669;SDS011;44439;47.924;10.198;2022-08-19T04:55:28;16.90;;;15.13;;
58669;SDS011;44439;47.924;10.198;2022-08-19T04:58:13;17.33;;;15.52;;
58669;SDS011;44439;47.924;10.198;2022-08-19T05:00:59;19.35;;;17.35;;
58669;SDS011;44439;47.924;10.198;2022-08-19T05:03:47;16.13;;;14.52;;
58669;SDS011;44439;47.924;10.198;2022-08-19T05:06:33;19.60;;;17.52;;
58669;SDS011;44439;47.924;10.198;2022-08-19T05:09:19;17.88;;;15.98;;
58669;SDS011;44439;47.924;10.198;2022-08-19T05:12:06;19.05;;;17.05;;
58669;SDS011;44439;47.924;10.198;2022-08-19T05:14:52;18.88;;;16.98;;
58669;SDS011;44439;47.924;10.198;2022-08-19T05:17:39;18.52;;;16.63;;
58669;SDS011;44439;47.924;10.198;2022-08-19T05:20:44;18.80;;;16.92;;
58669;SDS011;44439;47.924;10.198;2022-08-19T05:23:48;19.90;;;17.65;;
58669;SDS011;44439;47.924;10.198;2022-08-19T05:26:38;20.40;;;17.92;;
58669;SDS011;44439;47.924;10.198;2022-08-19T05:29:25;20.05;;;17.75;;
58669;SDS011;44439;47.924;10.198;2022-08-19T05:32:12;20.05;;;17.95;;
58669;SDS011;44439;47.924;10.198;2022-08-19T05:34:57;20.60;;;17.98;;
58669;SDS011;44439;47.924;10.198;2022-08-19T05:37:43;20.88;;;18.08;;
58669;SDS011;44439;47.924;10.198;2022-08-19T05:40:29;21.65;;;17.65;;
58669;SDS011;44439;47.924;10.198;2022-08-19T05:43:14;19.83;;;17.80;;
58669;SDS011;44439;47.924;10.198;2022-08-19T05:46:01;20.23;;;17.15;;
58669;SDS011;44439;47.924;10.198;2022-08-19T05:48:46;18.27;;;16.38;;
58669;SDS011;44439;47.924;10.198;2022-08-19T05:51:34;18.33;;;16.25;;
58669;SDS011;44439;47.924;10.198;2022-08-19T05:54:21;18.73;;;16.83;;
58669;SDS011;44439;47.924;10.198;2022-08-19T05:57:10;18.73;;;16.80;;
58669;SDS011;44439;47.924;10.198;2022-08-19T05:59:57;17.85;;;16.15;;
58669;SDS011;44439;47.924;10.198;2022-08-19T06:02:45;17.35;;;15.23;;
58669;SDS011;44439;47.924;10.198;2022-08-19T06:05:31;17.38;;;15.43;;
58669;SDS011;44439;47.924;10.198;2022-08-19T06:08:16;18.33;;;16.40;;
58669;SDS011;44439;47.924;10.198;2022-08-19T06:11:13;16.63;;;14.93;;
58669;SDS011;44439;47.924;10.198;2022-08-19T06:14:09;17.33;;;15.48;;
58669;SDS011;44439;47.924;10.198;2022-08-19T06:16:56;17.48;;;15.68;;
58669;SDS011;44439;47.924;10.198;2022-08-19T06:19:42;16.45;;;14.80;;
58669;SDS011;44439;47.924;10.198;2022-08-19T06:22:28;15.30;;;13.73;;
58669;SDS011;44439;47.924;10.198;2022-08-19T06:25:15;16.60;;;14.90;;
58669;SDS011;44439;47.924;10.198;2022-08-19T06:28:00;17.45;;;15.63;;
58669;SDS011;44439;47.924;10.198;2022-08-19T06:30:46;16.27;;;14.68;;
58669;SDS011;44439;47.924;10.198;2022-08-19T06:33:32;17.48;;;15.40;;
58669;SDS011;44439;47.924;10.198;2022-08-19T06:36:22;15.93;;;14.23;;
58669;SDS011;44439;47.924;10.198;2022-08-19T06:39:35;14.02;;;11.88;;
58669;SDS011;44439;47.924;10.198;2022-08-19T06:42:20;12.35;;;11.15;;
58669;SDS011;44439;47.924;10.198;2022-08-19T06:45:06;13.23;;;11.88;;
58669;SDS011;44439;47.924;10.198;2022-08-19T06:47:53;12.50;;;11.30;;
58669;SDS011;44439;47.924;10.198;2022-08-19T06:50:42;14.38;;;11.80;;
58669;SDS011;44439;47.924;10.198;2022-08-19T06:53:28;11.48;;;10.35;;
58669;SDS011;44439;47.924;10.198;2022-08-19T06:56:15;10.07;;;9.07;;
58669;SDS011;44439;47.924;10.198;2022-08-19T06:59:07;10.80;;;9.18;;
58669;SDS011;44439;47.924;10.198;2022-08-19T07:01:56;9.70;;;8.70;;
58669;SDS011;44439;47.924;10.198;2022-08-19T07:04:43;8.60;;;7.65;;
58669;SDS011;44439;47.924;10.198;2022-08-19T07:07:29;8.13;;;7.32;;
58669;SDS011;44439;47.924;10.198;2022-08-19T07:10:16;8.75;;;7.85;;
58669;SDS011;44439;47.924;10.198;2022-08-19T07:13:03;7.72;;;6.95;;
58669;SDS011;44439;47.924;10.198;2022-08-19T07:15:49;9.02;;;8.23;;
58669;SDS011;44439;47.924;10.198;2022-08-19T07:18:35;9.95;;;8.63;;
58669;SDS011;44439;47.924;10.198;2022-08-19T07:21:23;10.27;;;8.25;;
58669;SDS011;44439;47.924;10.198;2022-08-19T07:24:11;10.05;;;8.35;;
58669;SDS011;44439;47.924;10.198;2022-08-19T07:26:59;9.68;;;8.70;;
58669;SDS011;44439;47.924;10.198;2022-08-19T07:29:48;10.45;;;9.35;;
58669;SDS011;44439;47.924;10.198;2022-08-19T07:32:33;11.35;;;9.70;;
58669;SDS011;44439;47.924;10.198;2022-08-19T07:35:19;10.73;;;9.00;;
58669;SDS011;44439;47.924;10.198;2022-08-19T07:38:05;9.95;;;8.90;;
58669;SDS011;44439;47.924;10.198;2022-08-19T07:40:51;10.63;;;9.32;;
58669;SDS011;44439;47.924;10.198;2022-08-19T07:43:37;9.75;;;8.75;;
58669;SDS011;44439;47.924;10.198;2022-08-19T07:46:23;10.13;;;8.93;;
58669;SDS011;44439;47.924;10.198;2022-08-19T07:49:15;9.90;;;8.82;;
58669;SDS011;44439;47.924;10.198;2022-08-19T07:52:06;10.90;;;8.88;;
58669;SDS011;44439;47.924;10.198;2022-08-19T07:54:53;11.43;;;9.93;;
58669;SDS011;44439;47.924;10.198;2022-08-19T07:57:38;10.52;;;9.43;;
58669;SDS011;44439;47.924;10.198;2022-08-19T08:00:24;11.02;;;8.88;;
58669;SDS011;44439;47.924;10.198;2022-08-19T08:03:10;9.63;;;8.68;;
58669;SDS011;44439;47.924;10.198;2022-08-19T08:05:56;9.82;;;8.57;;
58669;SDS011;44439;47.924;10.198;2022-08-19T08:09:00;9.43;;;8.52;;
58669;SDS011;44439;47.924;10.198;2022-08-19T08:11:58;9.60;;;7.88;;
58669;SDS011;44439;47.924;10.198;2022-08-19T08:14:50;10.05;;;8.40;;
58669;SDS011;44439;47.924;10.198;2022-08-19T08:17:38;10.00;;;8.82;;
58669;SDS011;44439;47.924;10.198;2022-08-19T08:20:24;9.77;;;8.80;;
58669;SDS011;44439;47.924;10.198;2022-08-19T08:23:10;9.23;;;8.32;;
58669;SDS011;44439;47.924;10.198;2022-08-19T08:26:10;9.23;;;8.30;;
58669;SDS011;44439;47.924;10.198;2022-08-19T08:28:57;9.02;;;7.45;;
58669;SDS011;44439;47.924;10.198;2022-08-19T08:31:43;9.23;;;8.02;;
58669;SDS011;44439;47.924;10.198;2022-08-19T08:34:29;8.82;;;7.93;;
58669;SDS011;44439;47.924;10.198;2022-08-19T08:37:15;9.60;;;8.60;;
58669;SDS011;44439;47.924;10.198;2022-08-19T08:40:05;9.27;;;8.27;;
58669;SDS011;44439;47.924;10.198;2022-08-19T08:46:04;8.55;;;7.65;;
58669;SDS011;44439;47.924;10.198;2022-08-19T08:48:59;11.10;;;8.85;;
58669;SDS011;44439;47.924;10.198;2022-08-19T08:52:06;10.57;;;8.80;;
58669;SDS011;44439;47.924;10.198;2022-08-19T08:54:55;8.50;;;7.60;;
58669;SDS011;44439;47.924;10.198;2022-08-19T08:57:49;9.25;;;8.10;;
58669;SDS011;44439;47.924;10.198;2022-08-19T09:00:40;8.77;;;7.88;;
58669;SDS011;44439;47.924;10.198;2022-08-19T09:03:30;8.70;;;7.80;;
58669;SDS011;44439;47.924;10.198;2022-08-19T09:06:23;9.68;;;8.55;;
58669;SDS011;44439;47.924;10.198;2022-08-19T09:09:26;9.30;;;8.40;;
58669;SDS011;44439;47.924;10.198;2022-08-19T09:15:10;12.07;;;10.50;;
58669;SDS011;44439;47.924;10.198;2022-08-19T09:18:01;12.98;;;10.50;;
58669;SDS011;44439;47.924;10.198;2022-08-19T09:20:48;11.93;;;10.05;;
58669;SDS011;44439;47.924;10.198;2022-08-19T09:23:35;13.18;;;11.80;;
58669;SDS011;44439;47.924;10.198;2022-08-19T09:26:22;12.88;;;11.48;;
58669;SDS011;44439;47.924;10.198;2022-08-19T09:29:08;13.77;;;11.73;;
58669;SDS011;44439;47.924;10.198;2022-08-19T09:31:54;14.35;;;12.85;;
58669;SDS011;44439;47.924;10.198;2022-08-19T09:34:40;14.30;;;12.68;;
58669;SDS011;44439;47.924;10.198;2022-08-19T09:37:27;14.75;;;13.15;;
58669;SDS011;44439;47.924;10.198;2022-08-19T09:40:13;16.35;;;13.75;;
58669;SDS011;44439;47.924;10.198;2022-08-19T09:42:58;17.73;;;14.93;;
58669;SDS011;44439;47.924;10.198;2022-08-19T09:45:47;17.38;;;15.50;;
58669;SDS011;44439;47.924;10.198;2022-08-19T09:48:33;17.10;;;15.10;;
58669;SDS011;44439;47.924;10.198;2022-08-19T09:51:21;18.42;;;16.35;;
58669;SDS011;44439;47.924;10.198;2022-08-19T09:54:08;18.00;;;15.55;;
58669;SDS011;44439;47.924;10.198;2022-08-19T09:56:54;18.65;;;16.13;;
58669;SDS011;44439;47.924;10.198;2022-08-19T09:59:40;20.17;;;17.23;;
58669;SDS011;44439;47.924;10.198;2022-08-19T10:02:26;21.05;;;17.90;;
58669;SDS011;44439;47.924;10.198;2022-08-19T10:05:12;21.60;;;18.20;;
58669;SDS011;44439;47.924;10.198;2022-08-19T10:08:17;20.40;;;18.00;;
58669;SDS011;44439;47.924;10.198;2022-08-19T10:11:04;20.95;;;17.67;;
58669;SDS011;44439;47.924;10.198;2022-08-19T10:13:50;21.25;;;17.95;;
58669;SDS011;44439;47.924;10.198;2022-08-19T10:16:36;24.15;;;20.08;;
58669;SDS011;44439;47.924;10.198;2022-08-19T10:19:22;22.15;;;19.75;;
58669;SDS011;44439;47.924;10.198;2022-08-19T10:22:08;24.60;;;20.73;;
58669;SDS011;44439;47.924;10.198;2022-08-19T10:24:53;24.67;;;20.98;;
58669;SDS011;44439;47.924;10.198;2022-08-19T10:27:39;29.00;;;22.02;;
58669;SDS011;44439;47.924;10.198;2022-08-19T10:30:25;25.60;;;21.27;;
58669;SDS011;44439;47.924;10.198;2022-08-19T10:33:10;25.38;;;21.10;;
58669;SDS011;44439;47.924;10.198;2022-08-19T10:36:03;25.00;;;21.50;;
58669;SDS011;44439;47.924;10.198;2022-08-19T10:38:53;23.05;;;19.38;;
58669;SDS011;44439;47.924;10.198;2022-08-19T10:41:42;22.88;;;19.50;;
58669;SDS011;44439;47.924;10.198;2022-08-19T10:44:28;23.45;;;19.13;;
58669;SDS011;44439;47.924;10.198;2022-08-19T10:47:15;17.88;;;15.68;;
58669;SDS011;44439;47.924;10.198;2022-08-19T10:50:01;17.88;;;15.80;;
58669;SDS011;44439;47.924;10.198;2022-08-19T10:53:06;17.38;;;14.18;;
58669;SDS011;44439;47.924;10.198;2022-08-19T10:55:53;17.10;;;14.35;;
58669;SDS011;44439;47.924;10.198;2022-08-19T10:58:58;17.88;;;14.98;;
58669;SDS011;44439;47.924;10.198;2022-08-19T11:01:48;17.05;;;15.05;;
58669;SDS011;44439;47.924;10.198;2022-08-19T11:04:40;17.75;;;14.80;;
58669;SDS011;44439;47.924;10.198;2022-08-19T11:07:26;17.48;;;15.40;;
58669;SDS011;44439;47.924;10.198;2022-08-19T11:10:13;15.77;;;14.07;;
58669;SDS011;44439;47.924;10.198;2022-08-19T11:12:59;14.43;;;12.05;;
58669;SDS011;44439;47.924;10.198;2022-08-19T11:15:45;13.15;;;11.55;;
58669;SDS011;44439;47.924;10.198;2022-08-19T11:18:40;12.40;;;11.10;;
58669;SDS011;44439;47.924;10.198;2022-08-19T11:21:30;15.18;;;12.68;;
58669;SDS011;44439;47.924;10.198;2022-08-19T11:24:21;13.65;;;11.90;;
58669;SDS011;44439;47.924;10.198;2022-08-19T11:27:09;14.93;;;13.07;;
58669;SDS011;44439;47.924;10.198;2022-08-19T11:29:55;13.57;;;11.98;;
58669;SDS011;44439;47.924;10.198;2022-08-19T11:32:41;14.25;;;12.15;;
58669;SDS011;44439;47.924;10.198;2022-08-19T11:35:27;14.63;;;11.82;;
58669;SDS011;44439;47.924;10.198;2022-08-19T11:38:13;13.02;;;11.57;;
58669;SDS011;44439;47.924;10.198;2022-08-19T11:41:01;14.32;;;11.50;;
58669;SDS011;44439;47.924;10.198;2022-08-19T11:43:49;13.07;;;11.77;;
58669;SDS011;44439;47.924;10.198;2022-08-19T11:46:38;12.25;;;11.02;;
58669;SDS011;44439;47.924;10.198;2022-08-19T11:49:23;11.63;;;10.50;;
58669;SDS011;44439;47.924;10.198;2022-08-19T11:52:09;11.65;;;10.15;;
58669;SDS011;44439;47.924;10.198;2022-08-19T11:54:56;10.95;;;9.85;;
58669;SDS011;44439;47.924;10.198;2022-08-19T11:57:41;10.90;;;9.80;;
58669;SDS011;44439;47.924;10.198;2022-08-19T12:00:28;11.55;;;9.98;;
58669;SDS011;44439;47.924;10.198;2022-08-19T12:03:14;10.48;;;9.38;;
58669;SDS011;44439;47.924;10.198;2022-08-19T12:06:04;9.82;;;8.82;;
58669;SDS011;44439;47.924;10.198;2022-08-19T12:08:51;11.20;;;9.98;;
58669;SDS011;44439;47.924;10.198;2022-08-19T12:11:37;11.18;;;9.98;;
58669;SDS011;44439;47.924;10.198;2022-08-19T12:14:23;11.20;;;10.05;;
58669;SDS011;44439;47.924;10.198;2022-08-19T12:17:11;10.82;;;9.73;;
58669;SDS011;44439;47.924;10.198;2022-08-19T12:20:00;11.98;;;9.10;;
58669;SDS011;44439;47.924;10.198;2022-08-19T12:22:47;10.57;;;9.48;;
58669;SDS011;44439;47.924;10.198;2022-08-19T12:25:33;10.52;;;9.07;;
58669;SDS011;44439;47.924;10.198;2022-08-19T12:28:20;10.70;;;9.13;;
58669;SDS011;44439;47.924;10.198;2022-08-19T12:31:06;10.93;;;9.82;;
58669;SDS011;44439;47.924;10.198;2022-08-19T12:33:53;11.02;;;9.23;;
58669;SDS011;44439;47.924;10.198;2022-08-19T12:36:38;9.90;;;8.88;;
58669;SDS011;44439;47.924;10.198;2022-08-19T12:39:25;10.18;;;9.18;;
58669;SDS011;44439;47.924;10.198;2022-08-19T12:42:11;9.68;;;8.68;;
58669;SDS011;44439;47.924;10.198;2022-08-19T12:44:59;9.82;;;8.80;;
58669;SDS011;44439;47.924;10.198;2022-08-19T12:47:45;11.20;;;9.60;;
58669;SDS011;44439;47.924;10.198;2022-08-19T12:50:32;10.30;;;9.23;;
58669;SDS011;44439;47.924;10.198;2022-08-19T12:53:17;11.18;;;9.55;;
58669;SDS011;44439;47.924;10.198;2022-08-19T12:56:03;9.95;;;8.93;;
58669;SDS011;44439;47.924;10.198;2022-08-19T12:58:50;10.95;;;9.93;;
58669;SDS011;44439;47.924;10.198;2022-08-19T13:01:36;11.25;;;9.95;;
58669;SDS011;44439;47.924;10.198;2022-08-19T13:04:22;10.00;;;9.00;;
58669;SDS011;44439;47.924;10.198;2022-08-19T13:07:07;10.45;;;9.45;;
58669;SDS011;44439;47.924;10.198;2022-08-19T13:09:54;9.75;;;8.75;;
58669;SDS011;44439;47.924;10.198;2022-08-19T13:12:40;10.07;;;9.07;;
58669;SDS011;44439;47.924;10.198;2022-08-19T13:15:27;10.35;;;9.35;;
58669;SDS011;44439;47.924;10.198;2022-08-19T13:18:14;10.13;;;9.07;;
58669;SDS011;44439;47.924;10.198;2022-08-19T13:21:03;10.07;;;9.05;;
58669;SDS011;44439;47.924;10.198;2022-08-19T13:23:50;10.57;;;9.10;;
58669;SDS011;44439;47.924;10.198;2022-08-19T13:26:37;9.48;;;8.55;;
58669;SDS011;44439;47.924;10.198;2022-08-19T13:29:22;9.07;;;8.15;;
58669;SDS011;44439;47.924;10.198;2022-08-19T13:32:26;9.30;;;8.40;;
58669;SDS011;44439;47.924;10.198;2022-08-19T13:35:31;9.80;;;8.80;;
58669;SDS011;44439;47.924;10.198;2022-08-19T13:38:19;9.60;;;8.60;;
58669;SDS011;44439;47.924;10.198;2022-08-19T13:41:06;9.52;;;8.25;;
58669;SDS011;44439;47.924;10.198;2022-08-19T13:43:53;9.15;;;8.02;;
58669;SDS011;44439;47.924;10.198;2022-08-19T13:46:39;9.25;;;8.40;;
58669;SDS011;44439;47.924;10.198;2022-08-19T13:49:25;8.90;;;8.00;;
58669;SDS011;44439;47.924;10.198;2022-08-19T13:52:10;9.20;;;8.35;;
58669;SDS011;44439;47.924;10.198;2022-08-19T13:54:56;10.40;;;9.30;;
58669;SDS011;44439;47.924;10.198;2022-08-19T13:57:42;10.23;;;9.23;;
58669;SDS011;44439;47.924;10.198;2022-08-19T14:00:28;10.23;;;9.18;;
58669;SDS011;44439;47.924;10.198;2022-08-19T14:03:16;10.23;;;9.23;;
58669;SDS011;44439;47.924;10.198;2022-08-19T14:06:01;11.13;;;9.88;;
58669;SDS011;44439;47.924;10.198;2022-08-19T14:08:47;10.90;;;9.80;;
58669;SDS011;44439;47.924;10.198;2022-08-19T14:11:33;9.82;;;8.85;;
58669;SDS011;44439;47.924;10.198;2022-08-19T14:14:18;10.05;;;9.05;;
58669;SDS011;44439;47.924;10.198;2022-08-19T14:17:07;10.77;;;9.70;;
58669;SDS011;44439;47.924;10.198;2022-08-19T14:20:01;10.57;;;9.48;;
58669;SDS011;44439;47.924;10.198;2022-08-19T14:22:54;10.20;;;9.20;;
58669;SDS011;44439;47.924;10.198;2022-08-19T14:25:40;10.98;;;9.85;;
58669;SDS011;44439;47.924;10.198;2022-08-19T14:28:26;10.15;;;9.15;;
58669;SDS011;44439;47.924;10.198;2022-08-19T14:31:14;10.48;;;9.48;;
58669;SDS011;44439;47.924;10.198;2022-08-19T14:34:01;10.43;;;9.43;;
58669;SDS011;44439;47.924;10.198;2022-08-19T14:36:47;10.60;;;9.40;;
58669;SDS011;44439;47.924;10.198;2022-08-19T14:39:33;10.35;;;9.38;;
58669;SDS011;44439;47.924;10.198;2022-08-19T14:42:19;10.88;;;9.80;;
58669;SDS011;44439;47.924;10.198;2022-08-19T14:45:05;11.75;;;9.85;;
58669;SDS011;44439;47.924;10.198;2022-08-19T14:47:51;10.15;;;9.20;;
58669;SDS011;44439;47.924;10.198;2022-08-19T14:50:37;9.32;;;8.35;;
58669;SDS011;44439;47.924;10.198;2022-08-19T14:53:23;9.35;;;8.45;;
58669;SDS011;44439;47.924;10.198;2022-08-19T14:56:12;8.27;;;7.53;;
58669;SDS011;44439;47.924;10.198;2022-08-19T14:58:59;10.32;;;9.30;;
58669;SDS011;44439;47.924;10.198;2022-08-19T15:01:46;8.15;;;6.95;;
58669;SDS011;44439;47.924;10.198;2022-08-19T15:04:31;8.35;;;6.97;;
58669;SDS011;44439;47.924;10.198;2022-08-19T15:07:17;10.88;;;9.88;;
58669;SDS011;44439;47.924;10.198;2022-08-19T15:10:04;11.02;;;10.00;;
58669;SDS011;44439;47.924;10.198;2022-08-19T15:12:52;7.20;;;6.13;;
58669;SDS011;44439;47.924;10.198;2022-08-19T15:15:38;7.00;;;6.30;;
58669;SDS011;44439;47.924;10.198;2022-08-19T15:18:24;7.75;;;5.38;;
58669;SDS011;44439;47.924;10.198;2022-08-19T15:21:11;6.03;;;5.43;;
58669;SDS011;44439;47.924;10.198;2022-08-19T15:23:58;5.10;;;4.55;;
58669;SDS011;44439;47.924;10.198;2022-08-19T15:26:44;5.20;;;4.70;;
58669;SDS011;44439;47.924;10.198;2022-08-19T15:29:30;6.15;;;4.55;;
58669;SDS011;44439;47.924;10.198;2022-08-19T15:32:16;5.75;;;4.90;;
58669;SDS011;44439;47.924;10.198;2022-08-19T15:35:02;20.25;;;17.80;;
58669;SDS011;44439;47.924;10.198;2022-08-19T15:37:49;5.90;;;5.35;;
58669;SDS011;44439;47.924;10.198;2022-08-19T15:40:36;6.50;;;5.90;;
58669;SDS011;44439;47.924;10.198;2022-08-19T15:43:21;12.02;;;10.93;;
58669;SDS011;44439;47.924;10.198;2022-08-19T15:46:07;18.42;;;16.73;;
58669;SDS011;44439;47.924;10.198;2022-08-19T15:48:53;7.65;;;6.93;;
58669;SDS011;44439;47.924;10.198;2022-08-19T15:51:40;7.60;;;6.88;;
58669;SDS011;44439;47.924;10.198;2022-08-19T15:54:27;7.95;;;7.18;;
58669;SDS011;44439;47.924;10.198;2022-08-19T15:57:13;10.20;;;9.20;;
58669;SDS011;44439;47.924;10.198;2022-08-19T16:00:11;7.85;;;7.10;;
58669;SDS011;44439;47.924;10.198;2022-08-19T16:03:15;8.05;;;7.25;;
58669;SDS011;44439;47.924;10.198;2022-08-19T16:06:19;9.32;;;8.50;;
58669;SDS011;44439;47.924;10.198;2022-08-19T16:09:11;8.15;;;7.35;;
58669;SDS011;44439;47.924;10.198;2022-08-19T16:11:58;10.90;;;7.55;;
58669;SDS011;44439;47.924;10.198;2022-08-19T16:14:45;8.85;;;7.68;;
58669;SDS011;44439;47.924;10.198;2022-08-19T16:17:33;9.52;;;8.63;;
58669;SDS011;44439;47.924;10.198;2022-08-19T16:20:19;9.05;;;8.15;;
58669;SDS011;44439;47.924;10.198;2022-08-19T16:23:06;10.20;;;9.25;;
58669;SDS011;44439;47.924;10.198;2022-08-19T16:25:52;13.38;;;11.40;;
58669;SDS011;44439;47.924;10.198;2022-08-19T16:28:37;12.65;;;11.43;;